createdAt,value
2018-12-20T00:03:49.304Z,16.77
2018-12-20T00:09:53.041Z,15.77
2018-12-20T00:15:56.642Z,17.80
2018-12-20T00:22:00.049Z,16.43
2018-12-20T00:28:03.422Z,16.13
2018-12-20T00:34:06.960Z,17.10
2018-12-20T00:40:10.384Z,17.00
2018-12-20T00:46:13.878Z,16.27
2018-12-20T00:52:17.369Z,16.57
2018-12-20T00:58:20.748Z,17.10
2018-12-20T01:04:24.111Z,17.37
2018-12-20T01:10:27.601Z,16.87
2018-12-20T01:16:31.182Z,18.33
2018-12-20T01:22:34.848Z,18.23
2018-12-20T01:28:38.301Z,16.93
2018-12-20T01:34:41.723Z,14.13
2018-12-20T01:40:45.237Z,15.80
2018-12-20T01:46:49.168Z,15.97
2018-12-20T01:52:52.533Z,15.77
2018-12-20T01:58:55.963Z,15.13
2018-12-20T02:04:59.318Z,15.13
2018-12-20T02:11:02.813Z,13.63
2018-12-20T02:17:06.224Z,12.90
2018-12-20T02:23:09.759Z,13.67
2018-12-20T02:29:13.475Z,13.40
2018-12-20T02:35:17.094Z,15.97
2018-12-20T02:41:21.525Z,15.73
2018-12-20T02:53:40.613Z,13.77
2018-12-20T02:59:43.939Z,14.43
2018-12-20T03:05:47.355Z,15.57
2018-12-20T03:11:51.433Z,17.73
2018-12-20T03:17:54.918Z,14.70
2018-12-20T03:23:58.518Z,14.73
2018-12-20T03:30:02.008Z,16.07
2018-12-20T03:36:05.510Z,15.27
2018-12-20T03:42:08.888Z,15.63
2018-12-20T03:48:12.347Z,16.27
2018-12-20T03:54:15.978Z,16.10
2018-12-20T04:00:19.525Z,15.67
2018-12-20T04:06:22.948Z,16.50
2018-12-20T04:12:27.107Z,15.03
2018-12-20T04:18:30.573Z,15.10
2018-12-20T04:24:34.045Z,16.03
2018-12-20T04:30:37.575Z,16.80
2018-12-20T04:36:40.941Z,17.20
2018-12-20T04:42:44.296Z,14.47
2018-12-20T04:48:47.787Z,16.37
2018-12-20T04:54:51.682Z,16.60
2018-12-20T05:00:55.111Z,17.00
2018-12-20T05:06:58.557Z,19.47
2018-12-20T05:13:02.016Z,17.43
2018-12-20T05:19:05.754Z,18.70
2018-12-20T05:25:09.289Z,17.37
2018-12-20T05:31:12.686Z,18.93
2018-12-20T05:37:16.051Z,19.17
2018-12-20T05:43:19.393Z,20.50
2018-12-20T05:49:22.731Z,18.30
2018-12-20T05:55:26.114Z,18.37
2018-12-20T06:01:29.581Z,19.93
2018-12-20T06:07:33.140Z,20.17
2018-12-20T06:13:36.588Z,21.37
2018-12-20T06:19:40.029Z,22.70
2018-12-20T06:25:43.482Z,21.07
2018-12-20T06:31:46.838Z,21.83
2018-12-20T06:37:50.195Z,21.67
2018-12-20T06:43:53.604Z,20.77
2018-12-20T06:49:56.945Z,20.37
2018-12-20T06:56:00.275Z,21.67
2018-12-20T07:02:03.708Z,19.73
2018-12-20T07:08:07.040Z,19.90
2018-12-20T07:14:10.375Z,21.37
2018-12-20T07:20:13.719Z,19.90
2018-12-20T07:26:17.056Z,20.20
2018-12-20T07:32:25.120Z,19.87
2018-12-20T07:38:25.771Z,19.73
2018-12-20T07:44:29.142Z,20.20
2018-12-20T07:50:32.493Z,18.73
2018-12-20T07:56:35.921Z,18.90
2018-12-20T08:02:39.265Z,18.60
2018-12-20T08:08:42.602Z,18.03
2018-12-20T08:14:45.940Z,19.80
2018-12-20T08:20:49.294Z,16.40
2018-12-20T08:26:52.632Z,18.23
2018-12-20T08:32:55.967Z,17.80
2018-12-20T08:38:59.309Z,18.10
2018-12-20T08:45:02.634Z,17.77
2018-12-20T08:51:05.983Z,15.40
2018-12-20T08:57:09.351Z,15.80
2018-12-20T09:03:12.690Z,17.57
2018-12-20T09:09:16.040Z,57.93
2018-12-20T09:15:19.381Z,18.13
2018-12-20T09:21:22.779Z,28.33
2018-12-20T09:27:26.100Z,16.73
2018-12-20T09:33:29.425Z,15.90
2018-12-20T09:39:32.760Z,17.70
2018-12-20T09:45:36.123Z,26.17
2018-12-20T09:51:39.473Z,17.30
2018-12-20T09:57:42.820Z,14.60
2018-12-20T10:03:46.169Z,17.87
2018-12-20T10:09:49.499Z,16.90
2018-12-20T10:15:52.872Z,19.03
2018-12-20T10:21:56.224Z,17.20
2018-12-20T10:27:59.858Z,15.80
2018-12-20T10:34:03.206Z,17.03
2018-12-20T10:40:06.836Z,16.07
2018-12-20T10:46:10.197Z,16.77
2018-12-20T10:52:13.748Z,15.00
2018-12-20T10:58:17.099Z,14.90
2018-12-20T11:04:26.743Z,13.57
2018-12-20T11:10:30.080Z,14.50
2018-12-20T11:16:33.415Z,13.97
2018-12-20T11:22:36.784Z,13.60
2018-12-20T11:28:40.123Z,13.03
2018-12-20T11:34:43.514Z,12.13
2018-12-20T11:40:46.858Z,11.60
2018-12-20T11:46:50.272Z,11.17
2018-12-20T11:52:53.597Z,10.40
2018-12-20T11:58:56.937Z,8.50
2018-12-20T12:05:00.283Z,8.53
2018-12-20T12:11:03.628Z,8.10
2018-12-20T12:17:06.955Z,5.90
2018-12-20T12:23:10.519Z,5.57
2018-12-20T12:29:13.876Z,6.00
2018-12-20T12:35:17.209Z,5.40
2018-12-20T12:41:20.551Z,5.33
2018-12-20T12:47:29.368Z,5.23
2018-12-20T12:53:32.698Z,4.77
2018-12-20T12:59:36.027Z,4.87
2018-12-20T13:05:39.413Z,4.67
2018-12-20T13:11:42.804Z,4.10
2018-12-20T13:17:46.162Z,4.50
2018-12-20T13:23:49.500Z,4.47
2018-12-20T13:29:52.822Z,3.90
2018-12-20T13:35:56.266Z,3.50
2018-12-20T13:41:59.615Z,3.00
2018-12-20T13:48:02.946Z,3.37
2018-12-20T13:54:06.282Z,3.47
2018-12-20T14:06:26.356Z,3.30
2018-12-20T14:12:30.424Z,2.60
2018-12-20T14:18:33.753Z,3.40
2018-12-20T14:24:37.071Z,3.00
2018-12-20T14:30:40.478Z,2.97
2018-12-20T14:36:43.802Z,2.73
2018-12-20T14:42:47.126Z,2.67
2018-12-20T14:48:50.469Z,2.70
2018-12-20T14:54:53.830Z,4.40
2018-12-20T15:00:57.191Z,3.00
2018-12-20T15:07:00.520Z,2.20
2018-12-20T15:13:03.867Z,2.53
2018-12-20T15:19:07.217Z,3.50
2018-12-20T15:25:10.567Z,2.90
2018-12-20T15:31:13.928Z,2.70
2018-12-20T15:37:17.255Z,2.40
2018-12-20T15:43:20.613Z,3.60
2018-12-20T15:49:23.936Z,2.77
2018-12-20T15:55:27.270Z,2.33
2018-12-20T16:01:30.607Z,2.90
2018-12-20T16:07:33.948Z,3.20
2018-12-20T16:13:37.270Z,3.33
2018-12-20T16:19:40.605Z,3.33
2018-12-20T16:25:43.983Z,2.30
2018-12-20T16:31:47.336Z,4.63
2018-12-20T16:37:50.843Z,3.77
2018-12-20T16:43:54.161Z,3.90
2018-12-20T16:49:57.500Z,2.40
2018-12-20T16:56:00.862Z,2.40
2018-12-20T17:02:04.206Z,2.77
2018-12-20T17:08:07.540Z,3.47
2018-12-20T17:14:10.911Z,3.03
2018-12-20T17:20:14.265Z,2.67
2018-12-20T17:26:17.597Z,2.50
2018-12-20T17:32:20.930Z,2.50
2018-12-20T17:38:24.272Z,2.17
2018-12-20T17:44:27.598Z,2.10
2018-12-20T17:50:30.975Z,2.97
2018-12-20T17:56:34.293Z,2.53
2018-12-20T18:02:37.654Z,2.90
2018-12-20T18:08:41.239Z,1.97
2018-12-20T18:14:44.567Z,2.43
2018-12-20T18:20:47.908Z,3.83
2018-12-20T18:26:51.271Z,4.20
2018-12-20T18:32:54.614Z,3.10
2018-12-20T18:38:57.945Z,4.00
2018-12-20T18:45:01.272Z,3.63
2018-12-20T18:51:04.713Z,2.40
2018-12-20T18:57:08.052Z,4.20
2018-12-20T19:03:11.372Z,3.17
2018-12-20T19:09:14.703Z,3.63
2018-12-20T19:15:18.135Z,3.23
2018-12-20T19:21:21.537Z,2.97
2018-12-20T19:27:24.869Z,3.60
2018-12-20T19:33:28.187Z,3.33
2018-12-20T19:39:31.524Z,2.97
2018-12-20T19:45:34.854Z,2.70
2018-12-20T19:51:38.305Z,3.40
2018-12-20T19:57:41.643Z,2.87
2018-12-20T20:03:45.005Z,3.10
2018-12-20T20:09:48.494Z,3.40
2018-12-20T20:15:51.840Z,3.20
2018-12-20T20:21:55.187Z,3.47
2018-12-20T20:27:58.524Z,4.60
2018-12-20T20:34:01.889Z,5.10
2018-12-20T20:40:07.711Z,3.67
2018-12-20T20:46:11.045Z,4.03
2018-12-20T20:52:14.370Z,3.67
2018-12-20T20:58:17.696Z,4.60
2018-12-20T21:04:21.048Z,5.67
2018-12-20T21:10:24.392Z,4.70
2018-12-20T21:16:27.732Z,4.90
2018-12-20T21:22:31.070Z,3.77
2018-12-20T21:28:34.403Z,3.27
2018-12-20T21:34:37.736Z,4.67
2018-12-20T21:40:41.083Z,4.60
2018-12-20T21:46:44.482Z,5.13
2018-12-20T21:52:47.909Z,4.30
2018-12-20T21:58:51.255Z,3.43
2018-12-20T22:04:54.600Z,3.47
2018-12-20T22:10:57.928Z,3.60
2018-12-20T22:17:01.270Z,3.77
2018-12-20T22:23:04.603Z,3.40
2018-12-20T22:29:07.953Z,3.10
2018-12-20T22:35:11.278Z,2.80
2018-12-20T22:41:14.712Z,3.10
2018-12-20T22:47:18.162Z,2.40
2018-12-20T22:53:21.482Z,2.40
2018-12-20T22:59:24.835Z,2.43
2018-12-20T23:05:28.154Z,2.40
2018-12-20T23:11:31.478Z,2.67
2018-12-20T23:17:34.806Z,2.90
2018-12-20T23:23:38.165Z,2.50
2018-12-20T23:29:41.515Z,2.93
2018-12-20T23:35:44.865Z,2.57
2018-12-20T23:41:48.203Z,2.90
2018-12-20T23:47:51.524Z,2.90
2018-12-20T23:53:55.018Z,2.23
2018-12-20T23:59:58.351Z,2.30
